sensor_id;sensor_type;location;lat;lon;timestamp;pressure;altitude;pressure_sealevel;temperature;humidity
29371;BME280;16357;52.188;7.838;2022-11-06T00:02:16;100846.72;;;12.20;57.41
29371;BME280;16357;52.188;7.838;2022-11-06T00:04:46;100844.03;;;12.20;57.40
29371;BME280;16357;52.188;7.838;2022-11-06T00:07:12;100844.03;;;12.20;57.36
29371;BME280;16357;52.188;7.838;2022-11-06T00:09:39;100841.34;;;12.20;56.96
29371;BME280;16357;52.188;7.838;2022-11-06T00:12:05;100837.00;;;12.19;57.09
29371;BME280;16357;52.188;7.838;2022-11-06T00:14:32;100832.59;;;12.18;57.30
29371;BME280;16357;52.188;7.838;2022-11-06T00:16:58;100827.22;;;12.18;57.37
29371;BME280;16357;52.188;7.838;2022-11-06T00:19:25;100828.25;;;12.17;57.08
29371;BME280;16357;52.188;7.838;2022-11-06T00:21:51;100817.63;;;12.16;57.54
29371;BME280;16357;52.188;7.838;2022-11-06T00:24:18;100822.19;;;12.15;57.31
29371;BME280;16357;52.188;7.838;2022-11-06T00:26:44;100828.56;;;12.14;57.33
29371;BME280;16357;52.188;7.838;2022-11-06T00:29:18;100818.81;;;12.13;57.38
29371;BME280;16357;52.188;7.838;2022-11-06T00:31:44;100832.25;;;12.13;57.47
29371;BME280;16357;52.188;7.838;2022-11-06T00:34:11;100820.66;;;12.13;57.20
29371;BME280;16357;52.188;7.838;2022-11-06T00:36:37;100819.81;;;12.12;57.44
29371;BME280;16357;52.188;7.838;2022-11-06T00:39:03;100822.50;;;12.12;57.52
29371;BME280;16357;52.188;7.838;2022-11-06T00:41:30;100819.81;;;12.12;57.43
29371;BME280;16357;52.188;7.838;2022-11-06T00:44:00;100831.25;;;12.14;57.40
29371;BME280;16357;52.188;7.838;2022-11-06T00:46:27;100828.72;;;12.13;57.31
29371;BME280;16357;52.188;7.838;2022-11-06T00:48:54;100831.56;;;12.11;57.50
29371;BME280;16357;52.188;7.838;2022-11-06T00:51:25;100832.59;;;12.10;57.42
29371;BME280;16357;52.188;7.838;2022-11-06T00:53:53;100832.59;;;12.10;57.34
29371;BME280;16357;52.188;7.838;2022-11-06T00:56:20;100830.91;;;12.09;57.52
29371;BME280;16357;52.188;7.838;2022-11-06T00:58:47;100837.13;;;12.10;57.48
29371;BME280;16357;52.188;7.838;2022-11-06T01:01:24;100841.66;;;12.09;57.39
29371;BME280;16357;52.188;7.838;2022-11-06T01:04:07;100837.13;;;12.10;57.48
29371;BME280;16357;52.188;7.838;2022-11-06T01:06:36;100844.34;;;12.09;57.45
29371;BME280;16357;52.188;7.838;2022-11-06T01:09:03;100831.75;;;12.10;57.59
29371;BME280;16357;52.188;7.838;2022-11-06T01:11:38;100827.19;;;12.10;57.23
29371;BME280;16357;52.188;7.838;2022-11-06T01:14:25;100818.31;;;12.10;57.36
29371;BME280;16357;52.188;7.838;2022-11-06T01:16:52;100821.81;;;12.10;57.50
29371;BME280;16357;52.188;7.838;2022-11-06T01:19:20;100816.44;;;12.10;57.48
29371;BME280;16357;52.188;7.838;2022-11-06T01:21:49;100821.00;;;12.10;57.32
29371;BME280;16357;52.188;7.838;2022-11-06T01:24:25;100818.13;;;12.11;57.33
29371;BME280;16357;52.188;7.838;2022-11-06T01:26:53;100820.16;;;12.09;57.37
29371;BME280;16357;52.188;7.838;2022-11-06T01:29:40;100816.44;;;12.10;57.44
29371;BME280;16357;52.188;7.838;2022-11-06T01:32:06;100809.41;;;12.09;57.15
29371;BME280;16357;52.188;7.838;2022-11-06T01:34:33;100805.88;;;12.08;57.42
29371;BME280;16357;52.188;7.838;2022-11-06T01:36:59;100804.03;;;12.09;57.44
29371;BME280;16357;52.188;7.838;2022-11-06T01:39:25;100797.81;;;12.08;57.30
29371;BME280;16357;52.188;7.838;2022-11-06T01:41:53;100813.06;;;12.08;57.45
29371;BME280;16357;52.188;7.838;2022-11-06T01:47:03;100807.88;;;12.06;57.40
29371;BME280;16357;52.188;7.838;2022-11-06T01:49:34;100806.19;;;12.05;57.31
29371;BME280;16357;52.188;7.838;2022-11-06T01:52:05;100789.38;;;12.03;57.13
29371;BME280;16357;52.188;7.838;2022-11-06T01:54:34;100786.16;;;12.00;57.21
29371;BME280;16357;52.188;7.838;2022-11-06T01:57:03;100783.81;;;11.97;57.08
29371;BME280;16357;52.188;7.838;2022-11-06T01:59:32;100785.13;;;11.93;57.14
29371;BME280;16357;52.188;7.838;2022-11-06T02:01:59;100782.13;;;11.88;57.31
29371;BME280;16357;52.188;7.838;2022-11-06T02:04:32;100772.66;;;11.83;57.30
29371;BME280;16357;52.188;7.838;2022-11-06T02:07:01;100782.38;;;11.76;57.28
29371;BME280;16357;52.188;7.838;2022-11-06T02:09:29;100764.06;;;11.72;57.22
29371;BME280;16357;52.188;7.838;2022-11-06T02:12:17;100758.50;;;11.65;57.52
29371;BME280;16357;52.188;7.838;2022-11-06T02:15:00;100755.44;;;11.60;57.58
29371;BME280;16357;52.188;7.838;2022-11-06T02:18:03;100748.22;;;11.52;57.58
29371;BME280;16357;52.188;7.838;2022-11-06T02:20:36;100741.78;;;11.45;57.58
29371;BME280;16357;52.188;7.838;2022-11-06T02:23:35;100755.72;;;11.40;57.59
29371;BME280;16357;52.188;7.838;2022-11-06T02:29:04;100759.69;;;11.28;58.20
29371;BME280;16357;52.188;7.838;2022-11-06T02:31:34;100752.09;;;11.24;58.27
29371;BME280;16357;52.188;7.838;2022-11-06T02:34:05;100756.13;;;11.19;58.31
29371;BME280;16357;52.188;7.838;2022-11-06T02:36:39;100751.94;;;11.17;58.53
29371;BME280;16357;52.188;7.838;2022-11-06T02:39:11;100757.63;;;11.14;58.57
29371;BME280;16357;52.188;7.838;2022-11-06T02:41:43;100761.28;;;11.13;58.81
29371;BME280;16357;52.188;7.838;2022-11-06T02:44:14;100749.84;;;11.11;58.81
29371;BME280;16357;52.188;7.838;2022-11-06T02:46:46;100742.81;;;11.10;58.73
29371;BME280;16357;52.188;7.838;2022-11-06T02:49:30;100743.84;;;11.09;58.64
29371;BME280;16357;52.188;7.838;2022-11-06T02:52:03;100742.97;;;11.08;58.75
29371;BME280;16357;52.188;7.838;2022-11-06T02:54:34;100749.50;;;11.06;58.82
29371;BME280;16357;52.188;7.838;2022-11-06T02:57:04;100755.03;;;11.04;58.72
29371;BME280;16357;52.188;7.838;2022-11-06T02:59:49;100747.47;;;10.99;58.72
29371;BME280;16357;52.188;7.838;2022-11-06T03:02:22;100740.56;;;10.97;58.88
29371;BME280;16357;52.188;7.838;2022-11-06T03:04:52;100740.06;;;10.93;58.95
29371;BME280;16357;52.188;7.838;2022-11-06T03:10:25;100731.63;;;10.88;58.90
29371;BME280;16357;52.188;7.838;2022-11-06T03:13:19;100742.50;;;10.87;59.06
29371;BME280;16357;52.188;7.838;2022-11-06T03:16:04;100735.63;;;10.84;59.26
29371;BME280;16357;52.188;7.838;2022-11-06T03:18:49;100731.25;;;10.83;59.37
29371;BME280;16357;52.188;7.838;2022-11-06T03:21:45;100735.63;;;10.84;59.55
29371;BME280;16357;52.188;7.838;2022-11-06T03:24:15;100737.97;;;10.87;59.89
29371;BME280;16357;52.188;7.838;2022-11-06T03:26:46;100737.84;;;10.89;59.78
29371;BME280;16357;52.188;7.838;2022-11-06T03:29:18;100732.00;;;10.93;59.82
29371;BME280;16357;52.188;7.838;2022-11-06T03:32:00;100728.84;;;10.98;59.81
29371;BME280;16357;52.188;7.838;2022-11-06T03:34:36;100730.88;;;11.04;59.84
29371;BME280;16357;52.188;7.838;2022-11-06T03:37:12;100732.06;;;11.10;59.79
29371;BME280;16357;52.188;7.838;2022-11-06T03:39:45;100733.44;;;11.14;59.73
29371;BME280;16357;52.188;7.838;2022-11-06T03:42:18;100730.25;;;11.18;59.46
29371;BME280;16357;52.188;7.838;2022-11-06T03:44:50;100730.81;;;11.22;59.33
29371;BME280;16357;52.188;7.838;2022-11-06T03:47:25;100735.66;;;11.27;59.25
29371;BME280;16357;52.188;7.838;2022-11-06T03:49:58;100736.22;;;11.30;59.15
29371;BME280;16357;52.188;7.838;2022-11-06T03:52:34;100734.22;;;11.32;59.01
29371;BME280;16357;52.188;7.838;2022-11-06T03:55:08;100734.03;;;11.34;58.83
29371;BME280;16357;52.188;7.838;2022-11-06T03:57:49;100740.25;;;11.34;58.96
29371;BME280;16357;52.188;7.838;2022-11-06T04:00:18;100729.69;;;11.33;58.60
29371;BME280;16357;52.188;7.838;2022-11-06T04:02:50;100734.88;;;11.34;58.93
29371;BME280;16357;52.188;7.838;2022-11-06T04:05:20;100727.97;;;11.32;58.69
29371;BME280;16357;52.188;7.838;2022-11-06T04:07:52;100718.38;;;11.29;58.30
29371;BME280;16357;52.188;7.838;2022-11-06T04:10:43;100720.44;;;11.27;58.20
29371;BME280;16357;52.188;7.838;2022-11-06T04:13:31;100720.91;;;11.23;58.31
29371;BME280;16357;52.188;7.838;2022-11-06T04:16:18;100718.69;;;11.18;58.25
29371;BME280;16357;52.188;7.838;2022-11-06T04:18:44;100730.09;;;11.12;58.41
29371;BME280;16357;52.188;7.838;2022-11-06T04:21:29;100732.41;;;11.07;58.27
29371;BME280;16357;52.188;7.838;2022-11-06T04:30:15;100725.25;;;10.89;58.68
29371;BME280;16357;52.188;7.838;2022-11-06T04:33:18;100725.91;;;10.83;58.67
29371;BME280;16357;52.188;7.838;2022-11-06T04:41:22;100734.22;;;10.72;59.30
29371;BME280;16357;52.188;7.838;2022-11-06T04:43:56;100732.50;;;10.71;59.42
29371;BME280;16357;52.188;7.838;2022-11-06T04:46:32;100740.41;;;10.72;59.60
29371;BME280;16357;52.188;7.838;2022-11-06T04:49:04;100732.19;;;10.74;59.80
29371;BME280;16357;52.188;7.838;2022-11-06T04:51:34;100727.50;;;10.76;59.68
29371;BME280;16357;52.188;7.838;2022-11-06T04:54:01;100729.03;;;10.79;59.86
29371;BME280;16357;52.188;7.838;2022-11-06T04:56:30;100714.31;;;10.83;60.03
29371;BME280;16357;52.188;7.838;2022-11-06T04:59:02;100712.28;;;10.85;59.97
29371;BME280;16357;52.188;7.838;2022-11-06T05:01:28;100712.84;;;10.88;59.67
29371;BME280;16357;52.188;7.838;2022-11-06T05:03:55;100712.53;;;10.91;59.77
29371;BME280;16357;52.188;7.838;2022-11-06T05:06:21;100705.84;;;10.95;59.53
29371;BME280;16357;52.188;7.838;2022-11-06T05:08:55;100709.88;;;10.99;59.63
29371;BME280;16357;52.188;7.838;2022-11-06T05:11:23;100706.88;;;11.03;59.74
29371;BME280;16357;52.188;7.838;2022-11-06T05:13:49;100698.34;;;11.07;59.50
29371;BME280;16357;52.188;7.838;2022-11-06T05:16:16;100697.03;;;11.11;59.60
29371;BME280;16357;52.188;7.838;2022-11-06T05:18:42;100704.91;;;11.13;59.54
29371;BME280;16357;52.188;7.838;2022-11-06T05:21:09;100698.22;;;11.17;59.15
29371;BME280;16357;52.188;7.838;2022-11-06T05:23:54;100693.53;;;11.19;59.08
29371;BME280;16357;52.188;7.838;2022-11-06T05:26:20;100686.13;;;11.21;59.19
29371;BME280;16357;52.188;7.838;2022-11-06T05:28:47;100688.50;;;11.24;59.29
29371;BME280;16357;52.188;7.838;2022-11-06T05:31:13;100686.50;;;11.26;59.23
29371;BME280;16357;52.188;7.838;2022-11-06T05:33:40;100680.13;;;11.27;59.37
29371;BME280;16357;52.188;7.838;2022-11-06T05:36:06;100668.22;;;11.30;59.19
29371;BME280;16357;52.188;7.838;2022-11-06T05:38:33;100677.81;;;11.32;58.97
29371;BME280;16357;52.188;7.838;2022-11-06T05:40:59;100666.06;;;11.33;59.10
29371;BME280;16357;52.188;7.838;2022-11-06T05:43:26;100678.31;;;11.36;58.92
29371;BME280;16357;52.188;7.838;2022-11-06T05:45:52;100671.09;;;11.36;58.84
29371;BME280;16357;52.188;7.838;2022-11-06T05:48:19;100674.47;;;11.38;58.87
29371;BME280;16357;52.188;7.838;2022-11-06T05:50:46;100670.75;;;11.39;58.76
29371;BME280;16357;52.188;7.838;2022-11-06T05:53:12;100666.06;;;11.41;58.87
29371;BME280;16357;52.188;7.838;2022-11-06T05:55:39;100668.59;;;11.43;58.78
29371;BME280;16357;52.188;7.838;2022-11-06T05:58:05;100660.38;;;11.45;58.50
29371;BME280;16357;52.188;7.838;2022-11-06T06:00:31;100661.06;;;11.47;58.65
29371;BME280;16357;52.188;7.838;2022-11-06T06:02:58;100660.03;;;11.48;58.76
29371;BME280;16357;52.188;7.838;2022-11-06T06:05:24;100668.09;;;11.48;58.66
29371;BME280;16357;52.188;7.838;2022-11-06T06:07:50;100658.22;;;11.48;58.60
29371;BME280;16357;52.188;7.838;2022-11-06T06:10:17;100652.66;;;11.50;58.52
29371;BME280;16357;52.188;7.838;2022-11-06T06:12:43;100652.66;;;11.50;58.38
29371;BME280;16357;52.188;7.838;2022-11-06T06:15:10;100653.66;;;11.49;58.29
29371;BME280;16357;52.188;7.838;2022-11-06T06:17:36;100651.97;;;11.48;58.28
29371;BME280;16357;52.188;7.838;2022-11-06T06:20:03;100653.00;;;11.47;58.49
29371;BME280;16357;52.188;7.838;2022-11-06T06:22:30;100646.78;;;11.46;58.36
29371;BME280;16357;52.188;7.838;2022-11-06T06:24:57;100648.94;;;11.42;58.35
29371;BME280;16357;52.188;7.838;2022-11-06T06:27:23;100647.13;;;11.43;58.42
29371;BME280;16357;52.188;7.838;2022-11-06T06:29:53;100645.41;;;11.42;58.23
29371;BME280;16357;52.188;7.838;2022-11-06T06:32:19;100647.41;;;11.40;58.46
29371;BME280;16357;52.188;7.838;2022-11-06T06:34:45;100646.78;;;11.38;58.39
29371;BME280;16357;52.188;7.838;2022-11-06T06:37:12;100652.28;;;11.36;58.43
29371;BME280;16357;52.188;7.838;2022-11-06T06:39:45;100652.63;;;11.33;58.53
29371;BME280;16357;52.188;7.838;2022-11-06T06:42:11;100641.38;;;11.30;58.15
29371;BME280;16357;52.188;7.838;2022-11-06T06:44:38;100650.75;;;11.26;58.28
29371;BME280;16357;52.188;7.838;2022-11-06T06:47:04;100642.34;;;11.20;58.17
29371;BME280;16357;52.188;7.838;2022-11-06T06:49:30;100650.88;;;11.16;58.39
29371;BME280;16357;52.188;7.838;2022-11-06T06:51:57;100647.19;;;11.09;58.38
29371;BME280;16357;52.188;7.838;2022-11-06T06:54:23;100653.88;;;11.05;58.50
29371;BME280;16357;52.188;7.838;2022-11-06T06:56:49;100647.31;;;10.99;58.74
29371;BME280;16357;52.188;7.838;2022-11-06T06:59:16;100658.50;;;10.94;58.74
29371;BME280;16357;52.188;7.838;2022-11-06T07:01:42;100642.88;;;10.90;58.62
29371;BME280;16357;52.188;7.838;2022-11-06T07:04:09;100646.06;;;10.85;58.86
29371;BME280;16357;52.188;7.838;2022-11-06T07:06:35;100642.69;;;10.83;58.98
29371;BME280;16357;52.188;7.838;2022-11-06T07:09:02;100656.44;;;10.80;59.16
29371;BME280;16357;52.188;7.838;2022-11-06T07:11:28;100663.94;;;10.76;59.08
29371;BME280;16357;52.188;7.838;2022-11-06T07:13:55;100664.13;;;10.75;59.03
29371;BME280;16357;52.188;7.838;2022-11-06T07:16:21;100660.75;;;10.73;59.15
29371;BME280;16357;52.188;7.838;2022-11-06T07:18:47;100656.56;;;10.70;59.51
29371;BME280;16357;52.188;7.838;2022-11-06T07:21:14;100661.09;;;10.70;59.54
29371;BME280;16357;52.188;7.838;2022-11-06T07:23:40;100664.75;;;10.69;59.76
29371;BME280;16357;52.188;7.838;2022-11-06T07:26:07;100663.06;;;10.68;59.68
29371;BME280;16357;52.188;7.838;2022-11-06T07:28:34;100661.91;;;10.70;59.75
29371;BME280;16357;52.188;7.838;2022-11-06T07:31:03;100663.59;;;10.71;59.66
29371;BME280;16357;52.188;7.838;2022-11-06T07:33:30;100661.59;;;10.73;59.65
29371;BME280;16357;52.188;7.838;2022-11-06T07:36:08;100667.50;;;10.77;59.75
29371;BME280;16357;52.188;7.838;2022-11-06T07:38:36;100666.50;;;10.78;59.83
29371;BME280;16357;52.188;7.838;2022-11-06T07:41:04;100665.47;;;10.79;60.00
29371;BME280;16357;52.188;7.838;2022-11-06T07:43:30;100666.84;;;10.83;59.81
29371;BME280;16357;52.188;7.838;2022-11-06T07:45:58;100671.06;;;10.86;59.87
29371;BME280;16357;52.188;7.838;2022-11-06T07:48:27;100658.34;;;10.88;59.70
29371;BME280;16357;52.188;7.838;2022-11-06T07:50:54;100657.16;;;10.90;59.91
29371;BME280;16357;52.188;7.838;2022-11-06T07:53:21;100667.56;;;10.93;59.89
29371;BME280;16357;52.188;7.838;2022-11-06T07:55:52;100662.72;;;10.97;59.84
29371;BME280;16357;52.188;7.838;2022-11-06T07:58:19;100658.72;;;11.01;59.84
29371;BME280;16357;52.188;7.838;2022-11-06T08:00:46;100660.91;;;11.06;59.89
29371;BME280;16357;52.188;7.838;2022-11-06T08:03:13;100664.97;;;11.10;60.00
29371;BME280;16357;52.188;7.838;2022-11-06T08:05:40;100669.16;;;11.12;59.64
29371;BME280;16357;52.188;7.838;2022-11-06T08:08:07;100670.34;;;11.18;59.73
29371;BME280;16357;52.188;7.838;2022-11-06T08:10:34;100653.09;;;11.20;59.64
29371;BME280;16357;52.188;7.838;2022-11-06T08:13:03;100659.81;;;11.25;59.73
29371;BME280;16357;52.188;7.838;2022-11-06T08:15:29;100645.88;;;11.29;59.65
29371;BME280;16357;52.188;7.838;2022-11-06T08:17:57;100643.53;;;11.34;59.69
29371;BME280;16357;52.188;7.838;2022-11-06T08:20:24;100642.38;;;11.37;59.43
29371;BME280;16357;52.188;7.838;2022-11-06T08:22:51;100644.59;;;11.41;59.34
29371;BME280;16357;52.188;7.838;2022-11-06T08:25:17;100639.72;;;11.45;59.10
29371;BME280;16357;52.188;7.838;2022-11-06T08:27:43;100640.94;;;11.51;59.39
29371;BME280;16357;52.188;7.838;2022-11-06T08:30:10;100627.84;;;11.56;59.20
29371;BME280;16357;52.188;7.838;2022-11-06T08:32:37;100624.81;;;11.59;59.13
29371;BME280;16357;52.188;7.838;2022-11-06T08:35:04;100626.16;;;11.63;59.10
29371;BME280;16357;52.188;7.838;2022-11-06T08:37:30;100616.75;;;11.67;59.23
29371;BME280;16357;52.188;7.838;2022-11-06T08:39:57;100616.28;;;11.72;59.18
29371;BME280;16357;52.188;7.838;2022-11-06T08:42:23;100609.53;;;11.76;59.01
29371;BME280;16357;52.188;7.838;2022-11-06T08:44:49;100605.34;;;11.81;58.79
29371;BME280;16357;52.188;7.838;2022-11-06T08:47:16;100594.13;;;11.86;59.21
29371;BME280;16357;52.188;7.838;2022-11-06T08:49:42;100590.94;;;11.91;59.13
29371;BME280;16357;52.188;7.838;2022-11-06T08:52:08;100589.41;;;11.96;59.60
29371;BME280;16357;52.188;7.838;2022-11-06T08:54:35;100591.41;;;12.02;59.03
29371;BME280;16357;52.188;7.838;2022-11-06T08:57:02;100594.28;;;12.09;58.99
29371;BME280;16357;52.188;7.838;2022-11-06T08:59:29;100609.72;;;12.15;58.79
29371;BME280;16357;52.188;7.838;2022-11-06T09:01:56;100599.97;;;12.22;58.67
29371;BME280;16357;52.188;7.838;2022-11-06T09:04:22;100593.06;;;12.28;58.63
29371;BME280;16357;52.188;7.838;2022-11-06T09:06:49;100590.34;;;12.36;58.73
29371;BME280;16357;52.188;7.838;2022-11-06T09:09:15;100586.81;;;12.44;58.56
29371;BME280;16357;52.188;7.838;2022-11-06T09:11:42;100581.56;;;12.50;58.27
29371;BME280;16357;52.188;7.838;2022-11-06T09:14:08;100586.06;;;12.58;58.09
29371;BME280;16357;52.188;7.838;2022-11-06T09:16:34;100590.78;;;12.64;58.25
29371;BME280;16357;52.188;7.838;2022-11-06T09:19:01;100580.97;;;12.71;57.89
29371;BME280;16357;52.188;7.838;2022-11-06T09:21:27;100580.97;;;12.80;57.99
29371;BME280;16357;52.188;7.838;2022-11-06T09:23:54;100579.22;;;12.87;58.05
29371;BME280;16357;52.188;7.838;2022-11-06T09:26:20;100572.16;;;12.94;57.54
29371;BME280;16357;52.188;7.838;2022-11-06T09:28:46;100577.47;;;13.02;57.34
29371;BME280;16357;52.188;7.838;2022-11-06T09:31:13;100565.00;;;13.09;57.55
29371;BME280;16357;52.188;7.838;2022-11-06T09:33:39;100572.19;;;13.17;57.22
29371;BME280;16357;52.188;7.838;2022-11-06T09:36:06;100567.75;;;13.24;57.22
29371;BME280;16357;52.188;7.838;2022-11-06T09:38:32;100566.88;;;13.32;57.01
29371;BME280;16357;52.188;7.838;2022-11-06T09:41:01;100560.44;;;13.41;57.18
29371;BME280;16357;52.188;7.838;2022-11-06T09:46:34;100548.16;;;13.61;56.61
29371;BME280;16357;52.188;7.838;2022-11-06T09:49:27;100543.38;;;13.72;56.75
29371;BME280;16357;52.188;7.838;2022-11-06T09:52:01;100536.88;;;13.81;56.42
29371;BME280;16357;52.188;7.838;2022-11-06T09:54:36;100539.47;;;13.89;56.57
29371;BME280;16357;52.188;7.838;2022-11-06T09:57:14;100535.03;;;13.96;56.13
29371;BME280;16357;52.188;7.838;2022-11-06T09:59:41;100534.97;;;14.04;56.05
29371;BME280;16357;52.188;7.838;2022-11-06T10:02:21;100525.75;;;14.14;55.87
29371;BME280;16357;52.188;7.838;2022-11-06T10:05:04;100520.09;;;14.23;55.84
29371;BME280;16357;52.188;7.838;2022-11-06T10:07:35;100518.13;;;14.32;55.36
29371;BME280;16357;52.188;7.838;2022-11-06T10:10:06;100522.41;;;14.41;55.50
29371;BME280;16357;52.188;7.838;2022-11-06T10:12:45;100524.84;;;14.51;55.52
29371;BME280;16357;52.188;7.838;2022-11-06T10:15:31;100520.19;;;14.60;55.14
29371;BME280;16357;52.188;7.838;2022-11-06T10:26:07;100502.06;;;14.90;54.14
29371;BME280;16357;52.188;7.838;2022-11-06T10:31:29;100497.00;;;15.02;53.97
29371;BME280;16357;52.188;7.838;2022-11-06T10:39:03;100492.13;;;15.12;53.65
29371;BME280;16357;52.188;7.838;2022-11-06T10:41:36;100497.31;;;15.13;53.22
29371;BME280;16357;52.188;7.838;2022-11-06T10:44:09;100489.88;;;15.15;53.20
29371;BME280;16357;52.188;7.838;2022-11-06T10:46:42;100489.69;;;15.17;53.09
29371;BME280;16357;52.188;7.838;2022-11-06T10:49:22;100495.09;;;15.17;53.28
29371;BME280;16357;52.188;7.838;2022-11-06T10:55:13;100478.03;;;15.17;53.12
29371;BME280;16357;52.188;7.838;2022-11-06T10:57:45;100483.63;;;15.15;52.97
29371;BME280;16357;52.188;7.838;2022-11-06T11:00:15;100480.09;;;15.14;53.06
29371;BME280;16357;52.188;7.838;2022-11-06T11:02:48;100473.88;;;15.14;53.26
29371;BME280;16357;52.188;7.838;2022-11-06T11:05:18;100467.41;;;15.15;53.35
29371;BME280;16357;52.188;7.838;2022-11-06T11:07:47;100469.94;;;15.17;53.41
29371;BME280;16357;52.188;7.838;2022-11-06T11:12:54;100463.53;;;15.24;53.39
29371;BME280;16357;52.188;7.838;2022-11-06T11:15:22;100450.28;;;15.29;53.28
29371;BME280;16357;52.188;7.838;2022-11-06T11:20:45;100442.09;;;15.44;53.62
29371;BME280;16357;52.188;7.838;2022-11-06T11:23:20;100431.13;;;15.52;53.38
29371;BME280;16357;52.188;7.838;2022-11-06T11:25:51;100423.53;;;15.63;53.63
29371;BME280;16357;52.188;7.838;2022-11-06T11:28:32;100406.34;;;15.70;53.02
29371;BME280;16357;52.188;7.838;2022-11-06T11:31:12;100399.13;;;15.77;52.64
29371;BME280;16357;52.188;7.838;2022-11-06T11:33:46;100399.13;;;15.84;52.36
29371;BME280;16357;52.188;7.838;2022-11-06T11:36:14;100397.72;;;15.88;52.32
29371;BME280;16357;52.188;7.838;2022-11-06T11:38:41;100397.31;;;15.91;51.86
29371;BME280;16357;52.188;7.838;2022-11-06T11:41:12;100390.44;;;15.95;52.36
29371;BME280;16357;52.188;7.838;2022-11-06T11:43:40;100371.31;;;15.97;51.99
29371;BME280;16357;52.188;7.838;2022-11-06T11:48:53;100375.53;;;16.06;52.08
29371;BME280;16357;52.188;7.838;2022-11-06T11:54:00;100368.50;;;16.18;51.38
29371;BME280;16357;52.188;7.838;2022-11-06T11:56:28;100370.59;;;16.23;50.75
29371;BME280;16357;52.188;7.838;2022-11-06T11:59:19;100370.00;;;16.28;50.93
29371;BME280;16357;52.188;7.838;2022-11-06T12:01:47;100367.06;;;16.29;50.61
29371;BME280;16357;52.188;7.838;2022-11-06T12:06:51;100356.47;;;16.34;50.86
29371;BME280;16357;52.188;7.838;2022-11-06T12:09:19;100337.34;;;16.36;50.25
29371;BME280;16357;52.188;7.838;2022-11-06T12:11:46;100325.44;;;16.37;50.40
29371;BME280;16357;52.188;7.838;2022-11-06T12:14:26;100324.03;;;16.41;50.25
29371;BME280;16357;52.188;7.838;2022-11-06T12:16:58;100315.66;;;16.42;50.29
29371;BME280;16357;52.188;7.838;2022-11-06T12:19:29;100305.28;;;16.46;50.33
29371;BME280;16357;52.188;7.838;2022-11-06T12:22:02;100304.44;;;16.52;50.37
29371;BME280;16357;52.188;7.838;2022-11-06T12:24:46;100306.97;;;16.60;50.10
29371;BME280;16357;52.188;7.838;2022-11-06T12:27:22;100299.69;;;16.67;49.99
29371;BME280;16357;52.188;7.838;2022-11-06T12:30:04;100289.69;;;16.75;49.59
29371;BME280;16357;52.188;7.838;2022-11-06T12:35:36;100272.84;;;16.86;49.47
29371;BME280;16357;52.188;7.838;2022-11-06T12:41:12;100267.81;;;16.89;49.05
29371;BME280;16357;52.188;7.838;2022-11-06T12:43:50;100261.38;;;16.91;49.20
29371;BME280;16357;52.188;7.838;2022-11-06T12:55:00;100255.75;;;16.85;48.87
29371;BME280;16357;52.188;7.838;2022-11-06T13:08:34;100225.28;;;16.77;49.00
29371;BME280;16357;52.188;7.838;2022-11-06T13:13:49;100220.91;;;16.76;49.01
29371;BME280;16357;52.188;7.838;2022-11-06T13:19:34;100206.34;;;16.70;48.36
29371;BME280;16357;52.188;7.838;2022-11-06T13:22:49;100206.13;;;16.65;48.22
29371;BME280;16357;52.188;7.838;2022-11-06T13:30:16;100171.56;;;16.54;48.32
29371;BME280;16357;52.188;7.838;2022-11-06T13:32:51;100173.84;;;16.50;48.04
29371;BME280;16357;52.188;7.838;2022-11-06T13:35:20;100180.50;;;16.48;48.19
29371;BME280;16357;52.188;7.838;2022-11-06T13:37:48;100179.06;;;16.45;47.92
29371;BME280;16357;52.188;7.838;2022-11-06T13:40:24;100177.59;;;16.42;47.85
29371;BME280;16357;52.188;7.838;2022-11-06T13:43:05;100183.22;;;16.41;47.97
29371;BME280;16357;52.188;7.838;2022-11-06T13:45:43;100175.13;;;16.41;47.61
29371;BME280;16357;52.188;7.838;2022-11-06T13:48:31;100170.53;;;16.41;47.93
29371;BME280;16357;52.188;7.838;2022-11-06T13:57:16;100187.59;;;16.42;47.93
29371;BME280;16357;52.188;7.838;2022-11-06T14:08:13;100186.38;;;16.38;47.70
29371;BME280;16357;52.188;7.838;2022-11-06T14:10:57;100193.44;;;16.39;47.81
29371;BME280;16357;52.188;7.838;2022-11-06T14:13:27;100194.47;;;16.38;47.71
29371;BME280;16357;52.188;7.838;2022-11-06T14:18:29;100190.50;;;16.34;47.32
29371;BME280;16357;52.188;7.838;2022-11-06T14:26:43;100185.72;;;16.29;47.74
29371;BME280;16357;52.188;7.838;2022-11-06T14:31:58;100184.66;;;16.23;47.68
29371;BME280;16357;52.188;7.838;2022-11-06T14:34:28;100177.81;;;16.21;47.48
29371;BME280;16357;52.188;7.838;2022-11-06T14:36:55;100173.63;;;16.18;47.67
29371;BME280;16357;52.188;7.838;2022-11-06T14:44:54;100170.53;;;16.15;46.42
29371;BME280;16357;52.188;7.838;2022-11-06T14:47:28;100175.31;;;16.13;46.66
29371;BME280;16357;52.188;7.838;2022-11-06T14:49:59;100174.88;;;16.09;46.21
29371;BME280;16357;52.188;7.838;2022-11-06T14:52:27;100181.09;;;16.03;46.16
29371;BME280;16357;52.188;7.838;2022-11-06T14:55:03;100173.84;;;16.04;47.50
29371;BME280;16357;52.188;7.838;2022-11-06T14:57:41;100173.81;;;15.97;46.40
29371;BME280;16357;52.188;7.838;2022-11-06T15:03:33;100160.25;;;15.77;46.45
29371;BME280;16357;52.188;7.838;2022-11-06T15:16:22;100158.44;;;15.36;46.66
29371;BME280;16357;52.188;7.838;2022-11-06T15:18:50;100147.59;;;15.29;46.67
29371;BME280;16357;52.188;7.838;2022-11-06T15:21:21;100143.66;;;15.25;46.85
29371;BME280;16357;52.188;7.838;2022-11-06T15:26:24;100132.19;;;15.17;47.27
29371;BME280;16357;52.188;7.838;2022-11-06T15:29:10;100131.72;;;15.13;47.19
29371;BME280;16357;52.188;7.838;2022-11-06T15:31:39;100123.00;;;15.11;47.58